Morristown, NJ (07960)

04:03 EST le 24 janvier 2017 (GMT -0500)
Hillcrest | | Change Station
Avis météorologiques actifs: Gale Warning

Alt. 489 ft 40.80 °N, 74.49 °W | Updated 12 seconds ago

Nuageux
Nuageux
36.1 ° F
Paraît 33 ° F
N
3.4
Vent Variable Vent de ENE
Gusts 4.9 mph

Aujourd'hui
Haut(e) -- | Bas -- ° F
--% Risque de précip.
Hier
Haut(e) -- | Bas -- ° F
Precip. -- pouce
Pression 29.39 pouce
Visibilité 3.0 Miles terrestres
Nuages Couvert 1100 ft
Refroidissement éolien 33 ° F
Point de rosée 32 ° F
Humidité 83%
Précipitations 0.35 pouce
Profondeur de la couche neigeuse Non disponible.
7:14 AM 5:05 PM
Lune descendante, 13% visible
METAR KMMU 240855Z AUTO 02006G16KT 360V070 3SM +DZ OVC011 02/02 A2939 RMK AO2
Pression 29.39 pouce
Visibilité 3.0 Miles terrestres
Nuages Couvert 1100 ft
Refroidissement éolien 33 ° F
Point de rosée 32 ° F
Humidité 83%
Précipitations 0.35 pouce
Profondeur de la couche neigeuse Non disponible.
7:14 AM 5:05 PM
Lune descendante, 13% visible
METAR KMMU 240855Z AUTO 02006G16KT 360V070 3SM +DZ OVC011 02/02 A2939 RMK AO2

Get Your Daily Forecast Email!

Thanks for signing up!

Be on the lookout for a verification email in your inbox.

You'll start receiving the daily forecast at 8 AM.

×

10-Day Weather Forecast

Almanac

Astronomie

Jan. 24, 2017 Lever Coucher
Temps réel
Crépuscule civil
Crépuscule nautique
Crépuscule astronomique
Lune
Durée de lumière visible
Longueur du jour
Tomorrow will be .
, % of the Moon is Illuminated

Extrêmes aujourd'hui

State Highs State Lows

Community

WunderPhotos

Upload Photos

1,962,540 Photos téléchargées !

WunderBlog® & News

Nearby

Qualité de l'air

  Qualité de l'air Indice de la qualité de l'air Polluant
Not available.

Épaisseur de neige

Station Depth Altitude

Activité sismique

Ville Distance Mag. Time & Date
Minimum magnitude displayed is 2.5.

Températures des eaux côtières

Lieu Température

Stations

Stations météo à proximité

Emplacement de la station Température Refroidissement éolien Point de rosée Humidité Vent Precip. Alt. Mise à jour Type
                   

Watches & Warnings

Gale Warning
Issued: 22:31 EST Jan. 23, 2017 – National Weather Service

... Gale Warning in effect until 6 am EST Tuesday...
... Storm Warning is cancelled...

The National Weather Service in Upton has issued a Gale Warning...
which is in effect until 6 am EST Tuesday. The Storm Warning has
been cancelled.

* Winds and seas... northeast winds 20 to 30 kt with gusts up to
45 kt. Seas 3 to 6 feet.

Precautionary/preparedness actions...

A Gale Warning means sustained winds or frequent gusts of 34 to
47 kt are expected or occurring. Operating a vessel in gale
conditions requires experience and properly equipped vessels. It
is highly recommended that mariners without the proper experience
seek safe Harbor prior to the onset of gale conditions.